createdAt,value
2024-02-29T00:01:44.848Z,101025.72
2024-02-29T00:04:47.723Z,101019.59
2024-02-29T00:07:50.512Z,101028.84
2024-02-29T00:10:53.138Z,101031.41
2024-02-29T00:13:56.148Z,101035.66
2024-02-29T00:17:01.510Z,101032.41
2024-02-29T00:20:10.210Z,101032.63
2024-02-29T00:23:13.080Z,101033.78
2024-02-29T00:26:19.616Z,101031.53
2024-02-29T00:29:26.904Z,101028.44
2024-02-29T00:32:29.763Z,101024.53
2024-02-29T00:35:35.428Z,101029.66
2024-02-29T00:38:39.970Z,101024.34
2024-02-29T00:41:42.929Z,101034.13
2024-02-29T00:44:45.757Z,101037.38
2024-02-29T00:47:48.489Z,101041.16
2024-02-29T00:50:51.273Z,101048.53
2024-02-29T00:53:54.066Z,101039.50
2024-02-29T00:56:56.862Z,101048.63
2024-02-29T00:59:59.632Z,101055.75
2024-02-29T01:03:03.712Z,101052.72
2024-02-29T01:06:08.294Z,101049.38
2024-02-29T01:09:11.235Z,101047.53
2024-02-29T01:12:13.887Z,101041.06
2024-02-29T01:15:17.212Z,101029.50
2024-02-29T01:18:20.066Z,101025.75
2024-02-29T01:21:22.917Z,101019.94
2024-02-29T01:24:25.973Z,101022.38
2024-02-29T01:27:28.889Z,101011.19
2024-02-29T01:30:31.758Z,101017.66
2024-02-29T01:33:34.627Z,101013.34
2024-02-29T01:36:37.434Z,101007.53
2024-02-29T01:39:40.240Z,101011.09
2024-02-29T01:42:43.304Z,101003.06
2024-02-29T01:45:47.161Z,100997.69
2024-02-29T01:48:50.316Z,100998.88
2024-02-29T01:51:54.302Z,100995.22
2024-02-29T01:54:57.160Z,100992.13
2024-02-29T01:57:59.930Z,100987.94
2024-02-29T02:01:03.007Z,100975.00
2024-02-29T02:04:05.839Z,100978.09
2024-02-29T02:07:10.098Z,100979.81
2024-02-29T02:10:13.290Z,100978.16
2024-02-29T02:13:16.272Z,100973.53
2024-02-29T02:16:19.081Z,100975.34
2024-02-29T02:19:21.903Z,100967.25
2024-02-29T02:22:25.807Z,100971.88
2024-02-29T02:25:28.587Z,100976.47
2024-02-29T02:28:31.349Z,100982.47
2024-02-29T02:31:34.127Z,100981.63
2024-02-29T02:34:36.942Z,100984.25
2024-02-29T02:37:40.819Z,100982.50
2024-02-29T02:40:43.553Z,100980.03
2024-02-29T02:43:49.920Z,100978.75
2024-02-29T02:46:52.701Z,100985.22
2024-02-29T02:49:55.480Z,100980.22
2024-02-29T02:53:05.612Z,100974.56
2024-02-29T02:56:08.318Z,100977.78
2024-02-29T02:59:11.168Z,100965.88
2024-02-29T03:02:13.955Z,100972.53
2024-02-29T03:05:17.169Z,100969.47
2024-02-29T03:08:21.956Z,100976.22
2024-02-29T03:11:24.747Z,100973.41
2024-02-29T03:14:27.616Z,100973.66
2024-02-29T03:17:31.034Z,100974.81
2024-02-29T03:20:33.865Z,100976.63
2024-02-29T03:23:36.562Z,100979.16
2024-02-29T03:26:39.291Z,100975.53
2024-02-29T03:29:43.613Z,100972.44
2024-02-29T03:32:46.395Z,100983.91
2024-02-29T03:35:49.190Z,100989.34
2024-02-29T03:38:51.931Z,100995.50
2024-02-29T03:41:54.581Z,100988.94
2024-02-29T03:44:58.243Z,100991.09
2024-02-29T03:48:01.236Z,100988.81
2024-02-29T03:51:04.226Z,100990.78
2024-02-29T03:54:06.937Z,100998.22
2024-02-29T03:57:09.676Z,100991.50
2024-02-29T04:00:13.378Z,100988.16
2024-02-29T04:03:16.126Z,101004.16
2024-02-29T04:06:18.934Z,100993.56
2024-02-29T04:09:21.640Z,100989.91
2024-02-29T04:12:24.372Z,100984.13
2024-02-29T04:15:27.049Z,100970.47
2024-02-29T04:18:29.791Z,100976.22
2024-02-29T04:21:36.039Z,100976.88
2024-02-29T04:24:38.913Z,100972.91
2024-02-29T04:27:41.739Z,100956.25
2024-02-29T04:30:44.625Z,100950.66
2024-02-29T04:33:49.919Z,100956.13
2024-02-29T04:36:54.594Z,100964.38
2024-02-29T04:39:57.428Z,100954.13
2024-02-29T04:43:00.367Z,100947.66
2024-02-29T04:46:04.940Z,100953.59
2024-02-29T04:49:07.802Z,100952.88
2024-02-29T04:52:10.713Z,100962.44
2024-02-29T04:55:13.572Z,100972.66
2024-02-29T04:58:16.426Z,100977.09
2024-02-29T05:01:19.268Z,100972.94
2024-02-29T05:04:22.068Z,100969.78
2024-02-29T05:07:24.825Z,100974.22
2024-02-29T05:10:29.686Z,100952.75
2024-02-29T05:13:32.340Z,100958.34
2024-02-29T05:16:35.205Z,100948.41
2024-02-29T05:19:39.262Z,100955.88
2024-02-29T05:22:42.731Z,100969.88
2024-02-29T05:25:45.405Z,100958.13
2024-02-29T05:28:48.496Z,100971.53
2024-02-29T05:31:54.945Z,100980.91
2024-02-29T05:34:57.911Z,100978.72
2024-02-29T05:38:00.872Z,100972.16
2024-02-29T05:41:04.736Z,100973.28
2024-02-29T05:44:09.031Z,100970.34
2024-02-29T05:47:11.852Z,100976.28
2024-02-29T05:50:14.640Z,100974.28
2024-02-29T05:53:17.351Z,100981.28
2024-02-29T05:56:19.994Z,100976.22
2024-02-29T05:59:22.665Z,100982.13
2024-02-29T06:02:25.475Z,100986.88
2024-02-29T06:05:29.536Z,100989.97
2024-02-29T06:08:32.326Z,100990.59
2024-02-29T06:11:35.079Z,100988.25
2024-02-29T06:14:37.839Z,100985.72
2024-02-29T06:17:41.034Z,100987.94
2024-02-29T06:20:43.943Z,100988.94
2024-02-29T06:23:46.710Z,100988.03
2024-02-29T06:27:10.980Z,100981.09
2024-02-29T06:30:33.459Z,100985.38
2024-02-29T06:33:37.602Z,100988.03
2024-02-29T06:36:41.484Z,100989.75
2024-02-29T06:39:44.235Z,100997.97
2024-02-29T06:42:47.023Z,101000.97
2024-02-29T06:45:50.866Z,100998.16
2024-02-29T06:48:53.698Z,100990.00
2024-02-29T06:51:56.612Z,100994.41
2024-02-29T06:55:01.132Z,100972.59
2024-02-29T06:58:06.041Z,100983.69
2024-02-29T07:01:08.883Z,100987.69
2024-02-29T07:04:11.824Z,100978.72
2024-02-29T07:07:16.067Z,100978.72
2024-02-29T07:10:18.951Z,100984.72
2024-02-29T07:13:21.769Z,100974.72
2024-02-29T07:16:24.652Z,100978.50
2024-02-29T07:19:27.500Z,100982.34
2024-02-29T07:22:30.234Z,100974.53
2024-02-29T07:25:33.243Z,100975.88
2024-02-29T07:28:35.997Z,100980.66
2024-02-29T07:31:42.707Z,100973.59
2024-02-29T07:34:45.645Z,100972.38
2024-02-29T07:37:50.047Z,100967.81
2024-02-29T07:40:53.832Z,100966.13
2024-02-29T07:43:56.947Z,100961.75
2024-02-29T07:46:59.716Z,100962.44
2024-02-29T07:50:06.826Z,100963.41
2024-02-29T07:53:10.310Z,100960.25
2024-02-29T07:56:16.156Z,100960.41
2024-02-29T07:59:18.881Z,100960.78
2024-02-29T08:02:24.687Z,100960.59
2024-02-29T08:05:28.060Z,100957.72
2024-02-29T08:08:30.810Z,100963.44
2024-02-29T08:11:33.576Z,100960.38
2024-02-29T08:14:36.557Z,100962.34
2024-02-29T08:17:39.426Z,100969.50
2024-02-29T08:20:42.636Z,100952.53
2024-02-29T08:23:47.362Z,100965.31
2024-02-29T08:26:50.177Z,100956.50
2024-02-29T08:29:53.007Z,100962.50
2024-02-29T08:32:55.856Z,100953.19
2024-02-29T08:35:59.108Z,100948.41
2024-02-29T08:39:02.553Z,100950.00
2024-02-29T08:42:05.598Z,100951.63
2024-02-29T08:45:10.437Z,100954.63
2024-02-29T08:48:13.454Z,100950.91
2024-02-29T08:51:16.332Z,100954.31
2024-02-29T08:54:19.061Z,100946.50
2024-02-29T08:57:22.196Z,100952.34
2024-02-29T09:00:25.382Z,100955.00
2024-02-29T09:03:28.489Z,100953.25
2024-02-29T09:06:41.261Z,100961.88
2024-02-29T09:09:45.039Z,100953.81
2024-02-29T09:12:48.047Z,100956.41
2024-02-29T09:16:17.494Z,100958.72
2024-02-29T09:19:20.430Z,100955.09
2024-02-29T09:22:23.631Z,100945.38
2024-02-29T09:25:26.429Z,100953.16
2024-02-29T09:28:29.218Z,100944.25
2024-02-29T09:31:33.018Z,100930.41
2024-02-29T09:35:37.397Z,100945.28
2024-02-29T09:38:40.334Z,100944.47
2024-02-29T09:41:59.795Z,100939.69
2024-02-29T09:45:38.930Z,100929.13
2024-02-29T09:48:42.263Z,100931.56
2024-02-29T09:51:46.091Z,100929.09
2024-02-29T09:54:50.057Z,100932.88
2024-02-29T09:57:54.129Z,100928.00
2024-02-29T10:00:59.659Z,100932.84
2024-02-29T10:04:04.651Z,100942.25
2024-02-29T10:07:09.680Z,100927.56
2024-02-29T10:10:18.210Z,100941.44
2024-02-29T10:13:21.321Z,100936.50
2024-02-29T10:16:27.118Z,100931.03
2024-02-29T10:19:32.416Z,100929.25
2024-02-29T10:22:35.205Z,100926.94
2024-02-29T10:25:39.881Z,100922.09
2024-02-29T10:28:43.768Z,100923.13
2024-02-29T10:31:46.784Z,100905.16
2024-02-29T10:34:50.118Z,100908.91
2024-02-29T10:37:56.743Z,100907.56
2024-02-29T10:41:04.387Z,100912.13
2024-02-29T10:44:09.820Z,100911.50
2024-02-29T10:47:16.422Z,100906.13
2024-02-29T10:50:27.008Z,100900.41
2024-02-29T10:54:01.492Z,100899.41
2024-02-29T10:57:15.819Z,100898.50
2024-02-29T11:00:21.750Z,100892.69
2024-02-29T11:03:28.589Z,100880.66
2024-02-29T11:07:01.252Z,100872.59
2024-02-29T11:10:07.451Z,100863.69
2024-02-29T11:13:11.043Z,100855.94
2024-02-29T11:16:15.803Z,100857.75
2024-02-29T11:19:19.986Z,100838.88
2024-02-29T11:22:33.069Z,100846.94
2024-02-29T11:25:36.021Z,100840.31
2024-02-29T11:28:44.222Z,100833.94
2024-02-29T11:31:51.801Z,100834.06
2024-02-29T11:34:56.228Z,100834.28
2024-02-29T11:38:02.592Z,100827.53
2024-02-29T11:41:21.655Z,100823.00
2024-02-29T11:44:24.682Z,100821.16
2024-02-29T11:47:28.920Z,100814.66
2024-02-29T11:54:22.060Z,100806.88
2024-02-29T11:57:27.323Z,100800.47
2024-02-29T12:00:39.928Z,100783.28
2024-02-29T12:03:43.151Z,100775.50
2024-02-29T12:06:48.387Z,100785.38
2024-02-29T12:09:51.493Z,100779.59
2024-02-29T12:12:54.526Z,100782.25
2024-02-29T12:15:58.669Z,100781.31
2024-02-29T12:19:02.097Z,100785.06
2024-02-29T12:22:15.215Z,100788.28
2024-02-29T12:25:19.187Z,100782.91
2024-02-29T12:28:22.020Z,100784.31
2024-02-29T12:31:24.859Z,100790.56
2024-02-29T12:34:29.031Z,100788.16
2024-02-29T12:37:31.891Z,100785.84
2024-02-29T12:40:35.022Z,100775.63
2024-02-29T12:43:38.312Z,100787.78
2024-02-29T12:46:40.985Z,100786.38
2024-02-29T12:49:44.381Z,100780.31
2024-02-29T12:52:49.842Z,100787.38
2024-02-29T12:55:53.663Z,100781.19
2024-02-29T12:58:56.569Z,100780.81
2024-02-29T13:02:01.141Z,100770.50
2024-02-29T13:05:04.567Z,100764.13
2024-02-29T13:08:10.042Z,100773.06
2024-02-29T13:11:13.041Z,100763.88
2024-02-29T13:14:16.949Z,100756.72
2024-02-29T13:17:21.110Z,100750.47
2024-02-29T13:20:23.912Z,100743.16
2024-02-29T13:23:26.679Z,100746.56
2024-02-29T13:26:29.402Z,100740.50
2024-02-29T13:29:34.071Z,100732.47
2024-02-29T13:32:36.874Z,100724.91
2024-02-29T13:35:39.629Z,100723.63
2024-02-29T13:38:42.764Z,100721.41
2024-02-29T13:41:46.562Z,100728.59
2024-02-29T13:44:51.059Z,100716.78
2024-02-29T13:47:55.900Z,100718.19
2024-02-29T13:50:59.314Z,100723.31
2024-02-29T13:54:02.236Z,100720.53
2024-02-29T13:57:05.630Z,100718.84
2024-02-29T14:00:10.167Z,100722.53
2024-02-29T14:03:16.859Z,100718.31
2024-02-29T14:06:20.193Z,100700.66
2024-02-29T14:09:22.907Z,100703.44
2024-02-29T14:12:28.525Z,100700.19
2024-02-29T14:15:31.392Z,100710.03
2024-02-29T14:18:34.702Z,100708.78
2024-02-29T14:21:37.632Z,100714.59
2024-02-29T14:24:40.529Z,100715.75
2024-02-29T14:27:43.790Z,100705.91
2024-02-29T14:30:46.649Z,100704.66
2024-02-29T14:33:51.845Z,100697.47
2024-02-29T14:36:55.161Z,100688.75
2024-02-29T14:39:58.724Z,100683.44
2024-02-29T14:43:01.755Z,100683.75
2024-02-29T14:46:07.818Z,100682.13
2024-02-29T14:49:12.071Z,100678.47
2024-02-29T14:52:15.185Z,100677.59
2024-02-29T14:55:18.443Z,100657.97
2024-02-29T14:58:22.406Z,100657.06
2024-02-29T15:01:25.939Z,100658.34
2024-02-29T15:04:29.032Z,100660.78
2024-02-29T15:07:33.505Z,100650.66
2024-02-29T15:10:36.444Z,100650.91
2024-02-29T15:13:39.549Z,100648.19
2024-02-29T15:16:46.702Z,100651.94
2024-02-29T15:19:51.543Z,100647.38
2024-02-29T15:23:04.830Z,100651.00
2024-02-29T15:26:12.077Z,100633.03
2024-02-29T15:29:16.415Z,100629.44
2024-02-29T15:32:21.318Z,100614.00
2024-02-29T15:35:31.589Z,100615.16
2024-02-29T15:38:34.471Z,100604.94
2024-02-29T15:41:38.636Z,100596.91
2024-02-29T15:44:41.393Z,100591.84
2024-02-29T15:47:44.897Z,100588.47
2024-02-29T15:50:47.625Z,100592.31
2024-02-29T15:53:50.379Z,100591.94
2024-02-29T15:56:53.269Z,100597.84
2024-02-29T15:59:57.014Z,100593.31
2024-02-29T16:02:59.800Z,100573.00
2024-02-29T16:06:02.545Z,100580.78
2024-02-29T16:09:05.841Z,100583.09
2024-02-29T16:12:12.578Z,100577.63
2024-02-29T16:15:16.275Z,100569.81
2024-02-29T16:18:18.991Z,100567.47
2024-02-29T16:21:22.148Z,100571.25
2024-02-29T16:24:24.916Z,100568.13
2024-02-29T16:27:27.709Z,100566.78
2024-02-29T16:30:30.814Z,100574.25
2024-02-29T16:33:33.525Z,100565.75
2024-02-29T16:36:38.289Z,100569.19
2024-02-29T16:39:41.409Z,100565.56
2024-02-29T16:42:56.275Z,100564.47
2024-02-29T16:46:00.020Z,100559.22
2024-02-29T16:49:03.263Z,100555.00
2024-02-29T16:52:06.636Z,100565.06
2024-02-29T16:55:09.866Z,100560.41
2024-02-29T16:58:14.179Z,100562.78
2024-02-29T17:01:17.075Z,100565.72
2024-02-29T17:04:20.302Z,100563.56
2024-02-29T17:07:23.632Z,100556.50
2024-02-29T17:10:27.776Z,100545.50
2024-02-29T17:13:30.883Z,100544.00
2024-02-29T17:16:34.016Z,100551.03
2024-02-29T17:19:36.766Z,100546.22
2024-02-29T17:22:40.442Z,100548.53
2024-02-29T17:25:43.400Z,100542.00
2024-02-29T17:28:48.254Z,100551.44
2024-02-29T17:31:51.327Z,100559.63
2024-02-29T17:34:54.100Z,100570.72
2024-02-29T17:37:58.412Z,100583.31
2024-02-29T17:41:01.097Z,100587.88
2024-02-29T17:44:04.142Z,100608.34
2024-02-29T17:47:06.984Z,100605.94
2024-02-29T17:50:20.856Z,100615.78
2024-02-29T17:53:24.876Z,100613.78
2024-02-29T17:56:27.637Z,100612.34
2024-02-29T17:59:30.751Z,100616.25
2024-02-29T18:02:34.211Z,100613.00
2024-02-29T18:05:37.367Z,100615.63
2024-02-29T18:08:40.175Z,100605.44
2024-02-29T18:11:42.959Z,100583.63
2024-02-29T18:14:45.788Z,100582.81
2024-02-29T18:17:49.166Z,100583.22
2024-02-29T18:20:52.193Z,100579.53
2024-02-29T18:23:55.454Z,100572.19
2024-02-29T18:26:58.679Z,100560.81
2024-02-29T18:30:01.539Z,100548.53
2024-02-29T18:33:04.994Z,100552.19
2024-02-29T18:36:08.411Z,100563.84
2024-02-29T18:39:15.147Z,100568.72
2024-02-29T18:42:18.581Z,100572.63
2024-02-29T18:45:21.671Z,100574.44
2024-02-29T18:48:24.400Z,100565.69
2024-02-29T18:51:27.767Z,100557.34
2024-02-29T18:54:30.784Z,100558.97
2024-02-29T18:57:33.462Z,100563.44
2024-02-29T19:00:36.621Z,100564.28
2024-02-29T19:03:39.591Z,100560.00
2024-02-29T19:06:42.979Z,100567.75
2024-02-29T19:09:46.829Z,100569.34
2024-02-29T19:12:49.725Z,100565.47
2024-02-29T19:15:53.148Z,100572.00
2024-02-29T19:18:56.556Z,100562.22
2024-02-29T19:21:59.774Z,100565.03
2024-02-29T19:25:02.497Z,100559.75
2024-02-29T19:28:05.478Z,100561.19
2024-02-29T19:31:08.647Z,100567.09
2024-02-29T19:34:11.874Z,100580.56
2024-02-29T19:37:14.609Z,100580.34
2024-02-29T19:40:17.527Z,100565.09
2024-02-29T19:43:23.533Z,100526.16
2024-02-29T19:46:26.908Z,100489.28
2024-02-29T19:49:29.648Z,100475.41
2024-02-29T19:52:35.913Z,100471.16
2024-02-29T19:55:43.465Z,100459.34
2024-02-29T19:58:46.257Z,100437.75
2024-02-29T20:01:49.336Z,100439.38
2024-02-29T20:04:52.756Z,100424.13
2024-02-29T20:07:55.901Z,100400.91
2024-02-29T20:10:58.823Z,100374.44
2024-02-29T20:14:05.438Z,100376.25
2024-02-29T20:17:08.958Z,100382.97
2024-02-29T20:20:12.269Z,100384.59
2024-02-29T20:23:15.173Z,100380.94
2024-02-29T20:26:18.306Z,100392.31
2024-02-29T20:29:21.335Z,100400.25
2024-02-29T20:32:24.166Z,100398.41
2024-02-29T20:35:26.874Z,100405.53
2024-02-29T20:38:30.914Z,100403.09
2024-02-29T20:41:33.665Z,100397.41
2024-02-29T20:44:37.019Z,100398.44
2024-02-29T20:47:40.531Z,100396.00
2024-02-29T20:50:43.297Z,100386.00
2024-02-29T20:53:45.994Z,100389.91
2024-02-29T20:56:48.700Z,100391.75
2024-02-29T20:59:51.602Z,100393.34
2024-02-29T21:02:54.930Z,100398.88
2024-02-29T21:05:58.402Z,100409.22
2024-02-29T21:09:01.191Z,100424.94
2024-02-29T21:12:04.127Z,100423.09
2024-02-29T21:15:07.270Z,100415.56
2024-02-29T21:18:10.116Z,100423.31
2024-02-29T21:21:12.894Z,100409.69
2024-02-29T21:24:16.138Z,100391.31
2024-02-29T21:27:18.888Z,100380.16
2024-02-29T21:30:21.638Z,100384.00
2024-02-29T21:33:24.414Z,100377.91
2024-02-29T21:36:27.194Z,100359.19
2024-02-29T21:39:36.556Z,100350.63
2024-02-29T21:42:43.219Z,100350.22
2024-02-29T21:45:46.050Z,100339.84
2024-02-29T21:48:50.076Z,100347.78
2024-02-29T21:51:52.834Z,100329.88
2024-02-29T21:54:55.625Z,100334.56
2024-02-29T21:57:58.376Z,100326.19
2024-02-29T22:01:01.301Z,100333.75
2024-02-29T22:04:04.213Z,100332.91
2024-02-29T22:07:07.373Z,100332.31
2024-02-29T22:10:11.623Z,100323.34
2024-02-29T22:13:14.399Z,100315.63
2024-02-29T22:16:17.135Z,100314.19
2024-02-29T22:19:20.727Z,100304.22
2024-02-29T22:22:23.641Z,100294.03
2024-02-29T22:25:26.527Z,100278.59
2024-02-29T22:28:29.317Z,100286.13
2024-02-29T22:31:32.512Z,100282.25
2024-02-29T22:34:35.369Z,100280.03
2024-02-29T22:37:38.470Z,100290.59
2024-02-29T22:40:41.220Z,100272.09
2024-02-29T22:43:44.061Z,100280.41
2024-02-29T22:46:47.133Z,100275.75
2024-02-29T22:49:49.850Z,100260.91
2024-02-29T22:52:52.547Z,100255.22
2024-02-29T22:55:56.495Z,100254.19
2024-02-29T22:58:59.166Z,100260.91
2024-02-29T23:02:02.162Z,100253.16
2024-02-29T23:05:06.506Z,100245.25
2024-02-29T23:08:11.588Z,100238.75
2024-02-29T23:11:14.443Z,100243.66
2024-02-29T23:14:17.314Z,100244.25
2024-02-29T23:17:20.244Z,100242.00
2024-02-29T23:20:23.754Z,100244.25
2024-02-29T23:23:26.408Z,100247.69
2024-02-29T23:26:29.064Z,100246.47
2024-02-29T23:29:31.785Z,100246.28
2024-02-29T23:32:35.190Z,100244.44
2024-02-29T23:35:37.931Z,100251.38
2024-02-29T23:38:40.627Z,100246.09
2024-02-29T23:41:43.329Z,100248.31
2024-02-29T23:44:46.030Z,100237.53
2024-02-29T23:47:48.727Z,100228.97
2024-02-29T23:50:51.448Z,100220.47
2024-02-29T23:53:54.386Z,100225.75
2024-02-29T23:56:59.935Z,100222.47
